NCAR-RAP Real-Time Weather Data

Output produced by METARs form (20 February 2019  17:06 UTC)
found at http://weather.rap.ucar.edu/surface/
 
RJFK 201200Z 31009KT 9999 FEW030 SCT080 BKN100 08/03 Q1021 RMK 1CU030 3AC080 7AC100 A3016
RJFK 201100Z 31008KT 9999 FEW030 SCT080 BKN100 08/03 Q1021 RMK 1CU030 3AC080 7AC100 A3016
RJFK 201000Z 32007KT 9999 FEW030 SCT080 BKN120 08/03 Q1021 RMK 1CU030 3AC080 6AC120 A3016
RJFK 200900Z 30009KT 9999 FEW030 SCT070 09/03 Q1021 RMK 1CU030 4AC070 A3016 VOLCANIC ASH CLOUD S
RJFK 200800Z 29014KT 9999 FEW030 11/03 Q1020 RMK 1CU030 A3013 VOLCANIC ASH CLOUD S
RJFK 200700Z 32017KT 9999 FEW030 12/03 Q1020 RMK 1CU030 A3013
RJFK 200600Z 33015KT 9999 FEW030 14/04 Q1019 RMK 1CU030 A3011 VOLCANIC ASH CLOUD S
RJFK 200500Z 29013KT 260V330 9999 FEW030 15/04 Q1020 RMK 2CU030 A3012 VOLCANIC ASH CLOUD S
RJFK 200400Z 33015KT 9999 FEW030 SCT100 13/04 Q1020 RMK 2CU030 3AC100 A3012
RJFK 200300Z 31012KT 270V340 9999 FEW015 BKN025 14/05 Q1021 RMK 1CU015 7CU025 A3017
RJFK 200200Z 32014KT 9999 FEW015 BKN025 13/05 Q1021 RMK 1CU015 6CU025 A3017
RJFK 200100Z 31012KT 9999 FEW015 BKN020 11/06 Q1021 RMK 1CU015 7CU020 A3017
RJFK 200000Z 32012KT 9999 FEW010 BKN015 11/10 Q1021 RMK 1CU010 6CU015 A3016
RJFK 192300Z 33009KT 9999 FEW010 BKN015 11/10 Q1020 RMK 1CU010 6CU015 A3014
RJFK 192200Z 34005KT 310V020 9999 FEW008 BKN012 11/11 Q1020 RMK 1ST008 7CU012 A3012
RJFK 192100Z 30006KT 9999 FEW008 BKN012 11/11 Q1019 RMK 1ST008 7CU012 A3010
RJFK 191200Z 29006KT 9999 FEW010 BKN015 13/13 Q1017 RMK 1CU010 7CU015 A3005
RJFK 191100Z 27007KT 9999 FEW010 BKN015 BKN120 13/13 Q1017 RMK 1CU010 5CU015 7AC120 A3004
RJFK 191000Z 26009KT 9999 FEW004 SCT009 BKN015 14/14 Q1016 RMK 1ST004 3ST009 6CU015 A3002
RJFK 190900Z 27006KT 9999 SCT012 BKN020 15/15 Q1016 RMK 3CU012 7CU020 A3000
RJFK 190800Z 27012KT 9999 BKN015 BKN/// 16/16 Q1015
RJFK 190700Z 29012KT 9999 FEW001 BKN015 BKN/// 18/17 Q1014 RMK 1ST001 5CU015 A2996
RJFK 190608Z 28008KT 9999 -SHRA VCFG FEW001 SCT005 BKN010 18/18 Q1014 RMK 1ST001 3ST005 5CU010 A2996 FG N-SE
RJFK 190600Z 28010KT 6000 -SHRA BCFG FEW001 SCT005 BKN008 18/18 Q1014 RMK 1ST001 3ST005 5ST008 A2996 FG N-SE
RJFK 190539Z 25005KT 220V300 4000 R34/1500VP2000U -SHRA BR BCFG FEW001 SCT002 BKN005 17/17 Q1014 RMK 1ST001 3ST002 5ST005 A2995 FG N-SE AND SW-W
RJFK 190532Z 24007KT 2500 R34/1500VP2000D SHRA BR BCFG FEW001 BKN002 BKN007 17/17 Q1014 RMK 1ST001 5ST002 6ST007 A2995 FG ALL QUAD
RJFK 190524Z 24007KT 2000 -SHRA BR BCFG FEW001 BKN002 BKN007 17/17 Q1014 RMK 1ST001 5ST002 6ST007 A2995 FG ALL QUAD
RJFK 190500Z 23007KT 190V260 3000 -SHRA BR BCFG FEW001 BKN002 BKN007 17/17 Q1014 RMK 1ST001 5ST002 6ST007 A2995 FG NW-SE
RJFK 190443Z 23008KT 200V260 4000 -SHRA BR BCFG FEW001 SCT003 BKN007 17/17 Q1014 RMK 1ST001 3ST003 5ST007 A2996 FG NW-SE
RJFK 190424Z 22007KT 180V240 4000 -SHRA BR BCFG FEW001 SCT003 BKN005 17/17 Q1014 RMK 1ST001 3ST003 5ST005 A2996 FG NW-SE
RJFK 190400Z 21008KT 3000 SHRA BR BCFG FEW001 SCT003 BKN005 17/17 Q1015 RMK 1ST001 3ST003 5ST005 A2998 FG NW-SE
RJFK 190333Z 22009KT 190V260 3000 SHRA BR BCFG FEW001 SCT005 BKN008 17/17 Q1015 WS R34 RMK 1ST001 3ST005 5ST008 A2998 FG NW-SE
RJFK 190300Z 22008KT 180V270 5000 -SHRA BR BCFG FEW001 SCT005 BKN008 17/17 Q1015 RMK 1ST001 3ST005 5ST008 A2999 FG NW-SE
RJFK 190243Z 20008KT 160V240 4000 -SHRA BR BCFG FEW001 SCT005 BKN010 17/17 Q1016 RMK 1ST001 3ST005 5CU010 A3000 FG NW-SE
RJFK 190225Z 17003KT 110V210 3500 SHRA BR BCFG FEW001 SCT003 BKN005 16/16 Q1016 RMK 1ST001 3ST003 5ST005 A3001 FG NW-SE
RJFK 190217Z VRB02KT 4000 -SHRA BR BCFG FEW001 SCT005 BKN007 15/15 Q1016 RMK 1ST001 3ST005 5ST007 A3002 FG NW-SE
RJFK 190200Z VRB02KT 3000 SHRA BR BCFG FEW001 SCT003 BKN006 15/15 Q1016 RMK 1ST001 3ST003 5ST006 A3002 FG W-N AND E-SE
RJFK 190139Z VRB02KT 4000 -SHRA BR BCFG FEW001 SCT003 BKN005 14/14 Q1016 RMK 1ST001 3ST003 5ST005 A3002 FG W-N AND E-SE
RJFK 190108Z 09003KT 040V130 3000 -SHRA BR BCFG FEW001 SCT003 BKN005 14/14 Q1016 RMK 1ST001 3ST003 5ST005 A3002 FG NW-E
RJFK 190100Z VRB02KT 5000 -SHRA BR BCFG FEW002 BKN005 BKN010 14/14 Q1016 RMK 1ST002 5ST005 7CU010 A3003 FG N-E
RJFK 190020Z 09005KT 7000 -SHRA BCFG FEW003 SCT005 BKN015 13/13 Q1017 RMK 1ST003 4ST005 7CU015 A3003 FG NW-N
RJFK 190000Z 10007KT 3000 R34/P2000N -SHRA BR BCFG FEW003 BKN005 BKN007 13/13 Q1017 RMK 1ST003 5ST005 7ST007 A3005 1500N-NE FG N-E
RJFK 182338Z 12007KT 4000 -SHRA BR FEW005 BKN010 BKN015 13/13 Q1018 RMK 1ST005 5CU010 7CU015 A3007
RJFK 182332Z 12007KT 4000 SHRA BR FEW005 BKN010 BKN015 13/13 Q1018 RMK 1ST005 5CU010 7CU015 A3006
RJFK 182316Z 11007KT 4000 -SHRA BR FEW003 BKN010 BKN015 13/13 Q1017 RMK 1ST003 5CU010 7CU015 A3005
RJFK 182300Z 10006KT 9999 FEW003 BKN010 BKN015 12/12 Q1017 RMK 1ST003 5CU010 7CU015 A3006
RJFK 182245Z 11009KT 9999 -SHRA FEW003 BKN010 BKN015 12/12 Q1018 RMK 1ST003 5CU010 7CU015 A3007
RJFK 182230Z 11007KT 3000 -SHRA BR FEW003 SCT006 BKN009 12/12 Q1018 RMK 1ST003 4ST006 7ST009 A3008
RJFK 182219Z 10005KT 060V130 5000 -SHRA BR FEW003 SCT006 BKN009 12/12 Q1018 RMK 1ST003 4ST006 7ST009 A3008
RJFK 182200Z 11005KT 3000 -SHRA BR FEW003 BKN006 BKN010 12/12 Q1018 RMK 1ST003 5ST006 7CU010 A3008
RJFK 182100Z 09006KT 4000 -SHRA BR FEW003 SCT010 BKN015 11/11 Q1018 RMK 1ST003 4CU010 6CU015 A3008
RJFK 182042Z 09006KT 3000 -SHRA BR FEW003 SCT010 BKN015 11/11 Q1018 RMK 1ST003 4CU010 6CU015 A3008
RJFK 181200Z 11006KT 9999 FEW020 SCT060 BKN130 11/07 Q1023 RMK 1CU020 3SC060 7AC130 A3021
RJFK 181100Z 12004KT 9999 FEW020 SCT060 BKN120 11/07 Q1023 RMK 1CU020 3SC060 7AC120 A3021
RJFK 181000Z 11005KT 9999 FEW020 BKN060 BKN120 12/06 Q1023 RMK 2CU020 6SC060 7AC120 A3022
RJFK 180900Z 15004KT 9999 FEW030 SCT060 BKN120 13/05 Q1023 RMK 1CU030 4SC060 7AC120 A3021
RJFK 180800Z 16006KT 130V210 CAVOK 14/04 Q1022 RMK A3019
RJFK 180700Z 15006KT 110V180 9999 FEW030 BKN160 13/05 Q1021 RMK 1CU030 6AC160 A3017
RJFK 180600Z 20006KT 150V230 9999 FEW030 SCT140 BKN160 14/04 Q1022 RMK 1CU030 3AC140 6AC160 A3019